Terminal Aerodrome Forecast
Issued by NWS

Home | Current Version | Previous Version | Text Only | Print | Product List | Glossary On
Versions: 1 2 3 4 5 6 7 8 9 10 11 12 13 14 15 16 17 18 19 20 21 22 23 24 25 26 27
000
FTUS45 KABQ 281700 RRA
TAFLVS
TAF
KLVS 281746Z 2818/0118 19018KT 3SM -SHSN BR SCT008 OVC015
      TEMPO 2818/2820 3/4SM -SN BR OVC005
     FM282000 19015G23KT 5SM -SN BR BKN025 OVC040
     FM282300 20015G23KT 6SM -RASN BR OVC015
     FM010300 21010G18KT 3SM BR VCSH SCT015 BKN040
     FM010900 20011KT P6SM SCT008=

USA.gov is the U.S. government's official web portal to all federal, state and local government web resources and services.